createdAt,value
2023-03-12T00:01:16.666Z,30.43
2023-03-12T00:03:46.367Z,30.37
2023-03-12T00:06:14.832Z,30.44
2023-03-12T00:08:44.304Z,30.51
2023-03-12T00:11:16.027Z,30.09
2023-03-12T00:13:45.307Z,30.33
2023-03-12T00:16:15.847Z,30.35
2023-03-12T00:18:44.750Z,30.39
2023-03-12T00:21:12.869Z,30.39
2023-03-12T00:23:41.290Z,30.31
2023-03-12T00:26:12.050Z,30.32
2023-03-12T00:28:42.633Z,30.34
2023-03-12T00:31:19.226Z,30.26
2023-03-12T00:33:49.780Z,30.25
2023-03-12T00:36:18.398Z,30.29
2023-03-12T00:38:46.899Z,30.20
2023-03-12T00:41:15.382Z,30.37
2023-03-12T00:43:44.951Z,30.28
2023-03-12T00:46:13.175Z,30.21
2023-03-12T00:48:42.050Z,30.34
2023-03-12T00:51:10.387Z,30.41
2023-03-12T00:53:39.189Z,30.28
2023-03-12T00:56:08.161Z,30.37
2023-03-12T00:58:36.465Z,30.33
2023-03-12T01:01:06.719Z,30.32
2023-03-12T01:03:34.972Z,30.17
2023-03-12T01:06:03.153Z,30.23
2023-03-12T01:08:31.808Z,30.18
2023-03-12T01:11:00.130Z,30.26
2023-03-12T01:13:28.756Z,30.36
2023-03-12T01:15:57.441Z,30.34
2023-03-12T01:18:27.452Z,30.18
2023-03-12T01:20:55.698Z,30.33
2023-03-12T01:23:23.829Z,30.17
2023-03-12T01:25:55.585Z,30.11
2023-03-12T01:28:25.069Z,30.10
2023-03-12T01:30:53.284Z,30.17
2023-03-12T01:33:23.055Z,30.21
2023-03-12T01:35:52.963Z,30.19
2023-03-12T01:38:21.372Z,30.27
2023-03-12T01:40:49.608Z,30.07
2023-03-12T01:43:30.940Z,30.03
2023-03-12T01:46:07.724Z,30.07
2023-03-12T01:48:40.943Z,30.12
2023-03-12T01:51:13.937Z,30.28
2023-03-12T01:53:44.716Z,30.16
2023-03-12T01:56:14.314Z,30.09
2023-03-12T01:58:46.598Z,30.20
2023-03-12T02:01:19.288Z,30.08
2023-03-12T02:03:50.082Z,30.12
2023-03-12T02:06:22.162Z,30.10
2023-03-12T02:08:51.785Z,30.18
2023-03-12T02:11:19.957Z,30.20
2023-03-12T02:13:48.155Z,30.18
2023-03-12T02:16:16.761Z,30.09
2023-03-12T02:18:46.245Z,30.09
2023-03-12T02:21:20.854Z,30.12
2023-03-12T02:23:58.287Z,30.25
2023-03-12T02:26:30.574Z,30.14
2023-03-12T02:29:01.465Z,30.01
2023-03-12T02:31:36.620Z,30.02
2023-03-12T02:34:04.888Z,30.03
2023-03-12T02:36:33.003Z,29.97
2023-03-12T02:39:01.293Z,30.11
2023-03-12T02:41:33.805Z,30.05
2023-03-12T02:44:05.873Z,30.09
2023-03-12T02:46:37.857Z,30.05
2023-03-12T02:49:06.471Z,30.01
2023-03-12T02:51:35.009Z,29.99
2023-03-12T02:54:03.196Z,30.05
2023-03-12T02:56:33.197Z,29.95
2023-03-12T02:59:04.246Z,29.94
2023-03-12T03:01:34.345Z,29.94
2023-03-12T03:04:03.029Z,29.92
2023-03-12T03:06:32.560Z,30.03
2023-03-12T03:09:01.161Z,30.00
2023-03-12T03:11:29.611Z,30.05
2023-03-12T03:13:59.150Z,29.99
2023-03-12T03:16:27.835Z,30.00
2023-03-12T03:18:56.169Z,30.04
2023-03-12T03:21:24.338Z,29.97
2023-03-12T03:23:53.572Z,29.81
2023-03-12T03:26:24.142Z,29.95
2023-03-12T03:28:52.716Z,29.83
2023-03-12T03:31:22.949Z,29.96
2023-03-12T03:33:52.492Z,29.83
2023-03-12T03:36:20.841Z,29.92
2023-03-12T03:38:50.607Z,30.10
2023-03-12T03:41:19.416Z,29.95
2023-03-12T03:43:47.978Z,29.88
2023-03-12T03:46:17.034Z,29.95
2023-03-12T03:48:46.934Z,29.80
2023-03-12T03:51:15.312Z,29.81
2023-03-12T03:53:43.569Z,29.83
2023-03-12T03:56:13.894Z,29.96
2023-03-12T03:58:42.152Z,29.86
2023-03-12T04:01:10.260Z,29.94
2023-03-12T04:03:38.603Z,29.82
2023-03-12T04:06:09.024Z,29.70
2023-03-12T04:08:37.983Z,29.77
2023-03-12T04:11:10.151Z,29.87
2023-03-12T04:13:38.652Z,29.84
2023-03-12T04:16:07.585Z,29.90
2023-03-12T04:18:36.389Z,29.77
2023-03-12T04:21:06.194Z,29.84
2023-03-12T04:23:35.922Z,29.71
2023-03-12T04:26:04.754Z,29.88
2023-03-12T04:28:33.490Z,29.74
2023-03-12T04:31:03.519Z,29.81
2023-03-12T04:33:34.541Z,29.83
2023-03-12T04:36:03.049Z,29.83
2023-03-12T04:38:31.596Z,29.76
2023-03-12T04:41:02.867Z,29.71
2023-03-12T04:43:31.899Z,29.72
2023-03-12T04:46:00.969Z,29.88
2023-03-12T04:48:29.585Z,29.73
2023-03-12T04:50:57.828Z,29.71
2023-03-12T04:53:26.549Z,29.75
2023-03-12T04:55:55.058Z,29.66
2023-03-12T04:58:24.826Z,29.78
2023-03-12T05:00:53.133Z,29.66
2023-03-12T05:03:21.332Z,29.59
2023-03-12T05:05:49.745Z,29.66
2023-03-12T05:08:17.896Z,29.94
2023-03-12T05:10:46.650Z,29.78
2023-03-12T05:13:16.937Z,29.76
2023-03-12T05:15:47.701Z,29.63
2023-03-12T05:18:16.171Z,29.80
2023-03-12T05:20:44.389Z,29.62
2023-03-12T05:23:12.713Z,29.66
2023-03-12T05:25:41.726Z,29.68
2023-03-12T05:28:09.960Z,29.75
2023-03-12T05:30:38.138Z,29.64
2023-03-12T05:33:07.738Z,29.62
2023-03-12T05:35:35.972Z,29.77
2023-03-12T05:38:04.440Z,29.65
2023-03-12T05:40:32.692Z,29.64
2023-03-12T05:43:00.807Z,29.66
2023-03-12T05:45:29.088Z,29.55
2023-03-12T05:47:58.860Z,29.60
2023-03-12T05:50:28.529Z,29.62
2023-03-12T05:52:56.780Z,29.63
2023-03-12T05:55:24.978Z,29.59
2023-03-12T05:57:53.586Z,29.63
2023-03-12T06:00:22.624Z,29.58
2023-03-12T06:02:51.909Z,29.63
2023-03-12T06:05:20.197Z,29.51
2023-03-12T06:07:50.104Z,29.64
2023-03-12T06:10:19.454Z,29.67
2023-03-12T06:12:47.724Z,29.75
2023-03-12T06:15:15.896Z,29.49
2023-03-12T06:17:44.179Z,29.64
2023-03-12T06:20:13.165Z,29.57
2023-03-12T06:22:41.530Z,29.67
2023-03-12T06:25:11.928Z,29.49
2023-03-12T06:27:41.667Z,29.52
2023-03-12T06:30:10.982Z,29.53
2023-03-12T06:32:39.164Z,29.62
2023-03-12T06:35:07.986Z,29.61
2023-03-12T06:37:36.165Z,29.58
2023-03-12T06:40:10.031Z,29.59
2023-03-12T06:42:39.802Z,29.45
2023-03-12T06:45:09.049Z,29.53
2023-03-12T06:47:37.474Z,29.55
2023-03-12T06:50:06.347Z,29.45
2023-03-12T06:52:34.620Z,29.54
2023-03-12T06:55:02.836Z,29.50
2023-03-12T06:57:30.980Z,29.42
2023-03-12T07:00:00.589Z,29.51
2023-03-12T07:02:28.796Z,29.45
2023-03-12T07:04:56.999Z,29.52
2023-03-12T07:07:25.512Z,29.54
2023-03-12T07:09:53.740Z,29.36
2023-03-12T07:12:21.944Z,29.43
2023-03-12T07:14:50.220Z,29.40
2023-03-12T07:17:22.344Z,29.65
2023-03-12T07:19:50.493Z,29.46
2023-03-12T07:22:18.651Z,29.27
2023-03-12T07:24:46.784Z,29.53
2023-03-12T07:27:15.062Z,29.45
2023-03-12T07:29:43.354Z,29.37
2023-03-12T07:32:11.738Z,29.36
2023-03-12T07:34:41.383Z,29.32
2023-03-12T07:37:10.067Z,29.38
2023-03-12T07:39:38.272Z,29.52
2023-03-12T07:42:06.786Z,29.33
2023-03-12T07:44:36.877Z,29.43
2023-03-12T07:47:22.290Z,29.49
2023-03-12T07:49:52.688Z,29.46
2023-03-12T07:52:21.238Z,29.38
2023-03-12T07:54:49.503Z,29.46
2023-03-12T07:57:18.227Z,29.31
2023-03-12T07:59:48.220Z,29.40
2023-03-12T08:02:16.494Z,29.31
2023-03-12T08:04:44.786Z,29.46
2023-03-12T08:07:15.128Z,29.25
2023-03-12T08:09:43.335Z,29.27
2023-03-12T08:12:11.713Z,29.36
2023-03-12T08:14:40.197Z,29.56
2023-03-12T08:17:08.455Z,29.38
2023-03-12T08:19:36.724Z,29.34
2023-03-12T08:22:07.444Z,29.28
2023-03-12T08:24:37.324Z,29.42
2023-03-12T08:27:05.533Z,29.40
2023-03-12T08:29:34.108Z,29.35
2023-03-12T08:32:05.278Z,29.37
2023-03-12T08:34:34.113Z,29.36
2023-03-12T08:37:03.412Z,29.26
2023-03-12T08:39:31.776Z,29.43
2023-03-12T08:42:01.334Z,29.26
2023-03-12T08:44:29.695Z,29.25
2023-03-12T08:46:57.797Z,29.46
2023-03-12T08:49:26.214Z,29.31
2023-03-12T08:51:54.402Z,29.46
2023-03-12T08:54:22.796Z,29.32
2023-03-12T08:56:52.236Z,29.48
2023-03-12T08:59:23.566Z,29.39
2023-03-12T09:01:51.966Z,29.32
2023-03-12T09:04:20.366Z,29.33
2023-03-12T09:06:48.679Z,29.42
2023-03-12T09:09:16.799Z,29.23
2023-03-12T09:11:45.516Z,29.44
2023-03-12T09:15:01.374Z,29.39
2023-03-12T09:17:03.750Z,29.34
2023-03-12T09:19:31.921Z,29.44
2023-03-12T09:22:00.182Z,29.41
2023-03-12T09:24:28.355Z,29.32
2023-03-12T09:26:57.039Z,29.28
2023-03-12T09:29:25.415Z,29.36
2023-03-12T09:31:53.565Z,29.43
2023-03-12T09:34:23.341Z,29.34
2023-03-12T09:36:52.304Z,29.32
2023-03-12T09:39:21.049Z,29.35
2023-03-12T09:41:50.167Z,29.42
2023-03-12T09:44:25.349Z,29.27
2023-03-12T09:46:55.991Z,29.36
2023-03-12T09:49:35.664Z,29.31
2023-03-12T09:52:08.062Z,29.44
2023-03-12T09:54:42.226Z,29.46
2023-03-12T09:57:14.244Z,29.32
2023-03-12T09:59:42.504Z,29.38
2023-03-12T10:02:43.809Z,29.26
2023-03-12T10:05:20.339Z,29.46
2023-03-12T10:07:53.641Z,29.39
2023-03-12T10:10:31.349Z,29.38
2023-03-12T10:13:18.346Z,29.41
2023-03-12T10:15:57.860Z,29.39
2023-03-12T10:18:39.914Z,29.48
2023-03-12T10:21:21.388Z,29.42
2023-03-12T10:24:08.847Z,29.38
2023-03-12T10:26:40.791Z,29.32
2023-03-12T10:29:17.395Z,29.41
2023-03-12T10:31:52.808Z,29.46
2023-03-12T10:34:26.911Z,29.42
2023-03-12T10:37:01.395Z,29.32
2023-03-12T10:39:29.609Z,29.27
2023-03-12T10:42:01.392Z,29.42
2023-03-12T10:44:30.780Z,29.44
2023-03-12T10:47:27.220Z,29.37
2023-03-12T10:49:55.592Z,29.38
2023-03-12T10:52:25.380Z,29.46
2023-03-12T10:54:54.668Z,29.55
2023-03-12T10:57:23.906Z,29.46
2023-03-12T10:59:52.210Z,29.44
2023-03-12T11:02:41.209Z,29.43
2023-03-12T11:05:22.892Z,29.51
2023-03-12T11:07:53.161Z,29.44
2023-03-12T11:10:24.811Z,29.61
2023-03-12T11:12:59.757Z,29.53
2023-03-12T11:15:30.903Z,29.61
2023-03-12T11:18:32.315Z,29.54
2023-03-12T11:21:15.245Z,29.63
2023-03-12T11:23:48.470Z,29.56
2023-03-12T11:26:20.753Z,29.71
2023-03-12T11:28:51.051Z,29.64
2023-03-12T11:31:25.533Z,29.47
2023-03-12T11:33:55.887Z,29.49
2023-03-12T11:36:35.921Z,29.54
2023-03-12T11:39:17.040Z,29.67
2023-03-12T11:41:58.044Z,29.46
2023-03-12T11:44:29.354Z,29.48
2023-03-12T11:47:15.026Z,29.60
2023-03-12T11:49:58.547Z,29.55
2023-03-12T11:52:38.561Z,29.52
2023-03-12T11:55:19.123Z,29.67
2023-03-12T11:57:59.918Z,29.50
2023-03-12T12:00:36.646Z,29.65
2023-03-12T12:03:47.925Z,29.71
2023-03-12T12:06:24.456Z,29.49
2023-03-12T12:09:06.313Z,29.59
2023-03-12T12:11:46.505Z,29.59
2023-03-12T12:14:24.511Z,29.57
2023-03-12T12:17:11.314Z,29.64
2023-03-12T12:20:01.217Z,29.67
2023-03-12T12:22:37.692Z,29.44
2023-03-12T12:25:34.857Z,29.58
2023-03-12T12:28:27.575Z,29.68
2023-03-12T12:31:09.332Z,29.63
2023-03-12T12:33:54.624Z,29.85
2023-03-12T12:36:24.341Z,29.62
2023-03-12T12:38:57.590Z,29.68
2023-03-12T12:41:27.405Z,29.64
2023-03-12T12:44:02.339Z,29.69
2023-03-12T12:46:35.153Z,29.84
2023-03-12T12:49:10.098Z,29.73
2023-03-12T12:51:42.985Z,29.65
2023-03-12T12:54:19.514Z,29.63
2023-03-12T12:56:52.271Z,29.73
2023-03-12T12:59:34.378Z,29.72
2023-03-12T13:02:06.334Z,29.61
2023-03-12T13:04:37.388Z,29.65
2023-03-12T13:07:34.356Z,29.68
2023-03-12T13:10:08.147Z,29.72
2023-03-12T13:12:48.892Z,29.64
2023-03-12T13:15:40.802Z,29.67
2023-03-12T13:18:19.652Z,29.82
2023-03-12T13:21:02.255Z,29.84
2023-03-12T13:23:40.509Z,29.73
2023-03-12T13:26:18.798Z,29.71
2023-03-12T13:29:15.210Z,29.74
2023-03-12T13:31:49.674Z,29.81
2023-03-12T13:34:46.529Z,29.87
2023-03-12T13:37:47.531Z,29.68
2023-03-12T13:40:53.255Z,29.72
2023-03-12T13:43:41.966Z,29.67
2023-03-12T13:46:55.195Z,29.72
2023-03-12T13:49:26.328Z,29.68
2023-03-12T13:52:21.065Z,29.71
2023-03-12T13:54:57.586Z,29.87
2023-03-12T13:57:32.740Z,29.86
2023-03-12T14:00:01.437Z,29.80
2023-03-12T14:02:33.913Z,29.69
2023-03-12T14:05:09.653Z,29.71
2023-03-12T14:07:58.951Z,29.88
2023-03-12T14:10:37.984Z,29.80
2023-03-12T14:13:18.155Z,29.89
2023-03-12T14:15:54.459Z,29.92
2023-03-12T14:18:26.538Z,29.74
2023-03-12T14:21:00.848Z,29.74
2023-03-12T14:23:34.900Z,29.92
2023-03-12T14:26:06.738Z,29.84
2023-03-12T14:28:41.874Z,29.84
2023-03-12T14:31:14.082Z,29.92
2023-03-12T14:33:52.465Z,30.01
2023-03-12T14:36:26.205Z,29.97
2023-03-12T14:39:02.303Z,29.92
2023-03-12T14:41:35.958Z,29.75
2023-03-12T14:44:07.588Z,29.77
2023-03-12T14:46:36.037Z,29.83
2023-03-12T14:49:04.336Z,29.75
2023-03-12T14:51:37.976Z,29.88
2023-03-12T14:54:06.311Z,29.97
2023-03-12T14:56:36.121Z,29.81
2023-03-12T14:59:23.017Z,29.83
2023-03-12T15:01:51.489Z,29.88
2023-03-12T15:04:22.847Z,29.90
2023-03-12T15:06:55.174Z,29.99
2023-03-12T15:09:27.115Z,29.85
2023-03-12T15:11:57.975Z,29.93
2023-03-12T15:14:28.580Z,29.73
2023-03-12T15:17:00.341Z,29.97
2023-03-12T15:19:34.172Z,29.78
2023-03-12T15:22:05.529Z,29.87
2023-03-12T15:24:39.513Z,29.92
2023-03-12T15:27:21.515Z,29.99
2023-03-12T15:29:49.644Z,29.97
2023-03-12T15:32:20.975Z,29.93
2023-03-12T15:34:49.433Z,29.95
2023-03-12T15:37:32.682Z,29.93
2023-03-12T15:40:06.310Z,29.87
2023-03-12T15:42:41.262Z,29.90
2023-03-12T15:45:20.294Z,30.03
2023-03-12T15:47:49.498Z,29.94
2023-03-12T15:50:23.595Z,30.02
2023-03-12T15:53:03.628Z,30.00
2023-03-12T15:55:33.245Z,29.92
2023-03-12T15:58:01.957Z,29.85
2023-03-12T16:00:31.850Z,30.02
2023-03-12T16:03:04.049Z,30.03
2023-03-12T16:05:34.584Z,29.97
2023-03-12T16:08:15.752Z,30.03
2023-03-12T16:10:44.024Z,29.91
2023-03-12T16:13:16.380Z,29.87
2023-03-12T16:15:47.375Z,30.04
2023-03-12T16:18:17.721Z,30.00
2023-03-12T16:20:46.672Z,29.97
2023-03-12T16:23:16.920Z,30.03
2023-03-12T16:25:46.797Z,30.00
2023-03-12T16:28:18.047Z,30.00
2023-03-12T16:30:46.530Z,30.00
2023-03-12T16:33:16.754Z,29.98
2023-03-12T16:35:45.420Z,29.95
2023-03-12T16:38:15.391Z,29.80
2023-03-12T16:40:46.433Z,30.07
2023-03-12T16:43:18.962Z,29.97
2023-03-12T16:45:48.541Z,30.03
2023-03-12T16:48:19.371Z,29.87
2023-03-12T16:50:50.711Z,29.89
2023-03-12T16:53:21.029Z,30.07
2023-03-12T16:55:52.080Z,29.94
2023-03-12T16:58:22.710Z,29.98
2023-03-12T17:00:52.657Z,29.86
2023-03-12T17:03:27.405Z,29.89
2023-03-12T17:05:55.720Z,29.96
2023-03-12T17:08:25.839Z,30.04
2023-03-12T17:10:54.278Z,30.00
2023-03-12T17:13:24.731Z,29.88
2023-03-12T17:15:53.279Z,29.96
2023-03-12T17:18:22.171Z,29.99
2023-03-12T17:20:52.049Z,29.95
2023-03-12T17:23:20.672Z,30.11
2023-03-12T17:25:50.245Z,29.92
2023-03-12T17:28:18.792Z,30.00
2023-03-12T17:30:47.560Z,29.98
2023-03-12T17:33:17.661Z,29.96
2023-03-12T17:35:46.242Z,29.93
2023-03-12T17:38:15.394Z,30.01
2023-03-12T17:40:45.087Z,30.04
2023-03-12T17:43:15.324Z,30.03
2023-03-12T17:45:43.432Z,30.01
2023-03-12T17:48:12.233Z,30.06
2023-03-12T17:50:40.578Z,29.93
2023-03-12T17:53:08.829Z,29.99
2023-03-12T17:55:38.114Z,30.04
2023-03-12T17:58:07.359Z,30.04
2023-03-12T18:00:37.130Z,29.97
2023-03-12T18:03:06.414Z,29.84
2023-03-12T18:05:34.713Z,30.01
2023-03-12T18:08:02.945Z,29.87
2023-03-12T18:10:32.314Z,29.83
2023-03-12T18:13:00.581Z,30.10
2023-03-12T18:15:28.774Z,30.01
2023-03-12T18:17:58.963Z,29.96
2023-03-12T18:20:37.747Z,30.05
2023-03-12T18:23:07.385Z,29.92
2023-03-12T18:25:35.703Z,29.99
2023-03-12T18:28:04.881Z,29.90
2023-03-12T18:30:33.027Z,30.04
2023-03-12T18:33:03.314Z,29.94
2023-03-12T18:35:31.991Z,29.87
2023-03-12T18:38:02.485Z,30.02
2023-03-12T18:40:32.987Z,29.94
2023-03-12T18:43:01.932Z,30.00
2023-03-12T18:45:30.746Z,29.86
2023-03-12T18:47:59.344Z,29.89
2023-03-12T18:50:29.213Z,29.85
2023-03-12T18:52:57.668Z,29.94
2023-03-12T18:55:25.976Z,29.83
2023-03-12T18:57:54.148Z,29.98
2023-03-12T19:00:22.362Z,29.96
2023-03-12T19:02:50.495Z,29.95
2023-03-12T19:05:18.707Z,29.97
2023-03-12T19:07:48.237Z,29.81
2023-03-12T19:10:16.859Z,29.81
2023-03-12T19:12:52.730Z,29.64
2023-03-12T19:15:22.664Z,29.67
2023-03-12T19:17:50.966Z,29.71
2023-03-12T19:20:19.840Z,29.83
2023-03-12T19:22:49.484Z,29.65
2023-03-12T19:25:17.749Z,29.70
2023-03-12T19:27:45.910Z,29.77
2023-03-12T19:30:15.159Z,29.81
2023-03-12T19:32:48.649Z,29.86
2023-03-12T19:35:17.156Z,29.69
2023-03-12T19:37:45.311Z,29.66
2023-03-12T19:40:15.183Z,29.64
2023-03-12T19:42:43.899Z,29.67
2023-03-12T19:45:13.974Z,29.65
2023-03-12T19:47:42.129Z,29.73
2023-03-12T19:50:12.559Z,29.55
2023-03-12T19:52:40.673Z,29.89
2023-03-12T19:55:11.140Z,29.71
2023-03-12T19:57:41.683Z,29.75
2023-03-12T20:00:12.442Z,29.58
2023-03-12T20:02:40.804Z,29.66
2023-03-12T20:05:10.350Z,29.78
2023-03-12T20:07:38.455Z,29.90
2023-03-12T20:10:10.012Z,29.93
2023-03-12T20:12:38.424Z,29.95
2023-03-12T20:15:09.118Z,29.86
2023-03-12T20:17:37.247Z,29.96
2023-03-12T20:20:07.220Z,29.80
2023-03-12T20:22:36.352Z,30.02
2023-03-12T20:25:07.225Z,29.99
2023-03-12T20:27:35.410Z,29.90
2023-03-12T20:30:04.252Z,29.75
2023-03-12T20:32:33.830Z,30.05
2023-03-12T20:35:01.954Z,29.85
2023-03-12T20:37:30.029Z,29.99
2023-03-12T20:39:58.070Z,29.97
2023-03-12T20:42:26.244Z,30.09
2023-03-12T20:44:54.324Z,30.06
2023-03-12T20:47:22.395Z,29.97
2023-03-12T20:49:51.878Z,30.01
2023-03-12T20:52:20.117Z,30.05
2023-03-12T20:54:48.246Z,29.87
2023-03-12T20:57:16.602Z,29.94
2023-03-12T20:59:44.784Z,30.00
2023-03-12T21:02:14.948Z,30.11
2023-03-12T21:04:43.171Z,29.98
2023-03-12T21:07:12.905Z,29.94
2023-03-12T21:09:41.032Z,30.19
2023-03-12T21:12:09.573Z,29.99
2023-03-12T21:14:39.922Z,30.02
2023-03-12T21:17:13.236Z,30.07
2023-03-12T21:19:42.084Z,30.08
2023-03-12T21:22:10.607Z,29.92
2023-03-12T21:24:40.309Z,30.15
2023-03-12T21:27:11.494Z,29.98
2023-03-12T21:29:39.635Z,30.05
2023-03-12T21:32:07.875Z,30.00
2023-03-12T21:34:36.855Z,30.22
2023-03-12T21:37:05.040Z,30.22
2023-03-12T21:39:33.276Z,30.21
2023-03-12T21:42:02.873Z,30.29
2023-03-12T21:44:31.070Z,30.18
2023-03-12T21:46:59.366Z,30.05
2023-03-12T21:49:27.533Z,30.13
2023-03-12T21:51:55.745Z,30.15
2023-03-12T21:54:23.981Z,30.36
2023-03-12T21:56:52.102Z,30.15
2023-03-12T21:59:21.608Z,30.23
2023-03-12T22:01:49.785Z,30.11
2023-03-12T22:04:18.032Z,30.27
2023-03-12T22:06:46.159Z,30.26
2023-03-12T22:09:14.292Z,30.32
2023-03-12T22:11:42.569Z,30.18
2023-03-12T22:14:11.204Z,30.33
2023-03-12T22:16:40.772Z,30.22
2023-03-12T22:19:09.359Z,30.39
2023-03-12T22:21:37.464Z,30.22
2023-03-12T22:24:06.216Z,30.25
2023-03-12T22:26:34.309Z,30.25
2023-03-12T22:29:02.777Z,30.24
2023-03-12T22:31:31.578Z,30.25
2023-03-12T22:34:01.183Z,30.39
2023-03-12T22:36:29.320Z,30.26
2023-03-12T22:38:57.766Z,30.36
2023-03-12T22:41:27.543Z,30.39
2023-03-12T22:43:57.058Z,30.33
2023-03-12T22:46:27.612Z,30.23
2023-03-12T22:48:57.889Z,30.41
2023-03-12T22:51:28.379Z,30.17
2023-03-12T22:53:56.773Z,30.36
2023-03-12T22:56:24.968Z,30.31
2023-03-12T22:58:53.242Z,30.30
2023-03-12T23:01:23.095Z,30.34
2023-03-12T23:03:52.301Z,30.29
2023-03-12T23:06:22.293Z,30.25
2023-03-12T23:08:52.481Z,30.28
2023-03-12T23:11:21.131Z,30.37
2023-03-12T23:13:49.915Z,30.31
2023-03-12T23:16:20.621Z,30.40
2023-03-12T23:18:49.566Z,30.34
2023-03-12T23:21:19.667Z,30.35
2023-03-12T23:23:48.452Z,30.42
2023-03-12T23:26:19.877Z,30.40
2023-03-12T23:28:48.341Z,30.46
2023-03-12T23:31:17.381Z,30.53
2023-03-12T23:33:46.117Z,30.54
2023-03-12T23:36:16.244Z,30.47
2023-03-12T23:38:45.184Z,30.37
2023-03-12T23:41:16.043Z,30.53
2023-03-12T23:43:46.061Z,30.50
2023-03-12T23:46:17.137Z,30.55
2023-03-12T23:48:46.961Z,30.48
2023-03-12T23:51:16.965Z,30.54
2023-03-12T23:53:47.300Z,30.59
2023-03-12T23:56:17.526Z,30.61
2023-03-12T23:58:47.429Z,30.61
